Aérodrome :
LOGIN :

S'inscrire | Disclaimer

   EN    FR    IT 

 










Légende :    VFR   VFR Marginal   IFR   IFR Intensif   IFR Très Intensif
Visi : 
Plafond : 
>= 8 km
>= 3000ft
5 à 8 km
1000 à 3000 ft
1500m à 5 km
500 à 1000 ft
800 à 1500m
200 à 500 ft
< 800m
< 200 ft
Symboles :   Orages  Brouillard  Fortes neiges  Fortes précipitations  Vent > 20 kt
SIGMETs :   Divers  Orages  Givrage  Turbulence  Onde Orograph.  Cendres Volcan.






- Altitude de l'aérodrome : 188 ft
- Code IATA : ORB


ESOE - Örebro

DERNIER METAR :
  • 180550Z 06009KT 0650 R01/1600U R19/P2000N VV003 06/05 Q1017

METARs EXPIRÉS :
  • 180520Z 06009KT 0500 R01/1300N R19/1600N FG VV002 06/05 Q1018
  • 180450Z 07008KT 0400 R01/1000N R19/1600U FG VV002 06/05 Q1018
  • 180420Z 07008KT 0900 R01/2000U R19/2000N FG VV002 06/05 Q1018
  • 180350Z 06009KT 1200 R01/P2000N R19/P2000N FG VV002 06/05 Q1018
  • 180320Z 06007KT 2800 BR OVC003 06/05 Q1018

TAF TAF ESOE
Valide du 18 à 06h jusqu'au 18 à 15h UTC


180530Z 1806/1815 07010KT 0300 FG VV002
TEMPO 1806/1815 1500 BR



MET'MAP, la Météo Aéronautique d'un coup d'oeil ! - Copyright ORBIFLY Décembre 2007 - Disclaimer

ORBIFLY MET'MAP TEAM :

Programmation & Développement : Alexandra Zaïnal
Conception & Développement : Baudouin d'Aumeries
Co-Programmation & Développement : Marc-Olivier Méhu
Soutien technique & logistique : Manuel Goepfert

Contact : metmap@orbifly.com




SOURCES & CREDITS :

   NOAA